createdAt,value
2018-09-25T00:00:15.918Z,22.00
2018-09-25T00:02:49.620Z,22.00
2018-09-25T00:05:23.368Z,21.90
2018-09-25T00:07:57.129Z,21.90
2018-09-25T00:10:30.733Z,22.00
2018-09-25T00:13:04.587Z,21.90
2018-09-25T00:15:38.408Z,22.00
2018-09-25T00:18:12.146Z,21.90
2018-09-25T00:20:45.829Z,21.90
2018-09-25T00:23:19.553Z,21.90
2018-09-25T00:25:53.195Z,21.90
2018-09-25T00:28:27.085Z,21.90
2018-09-25T00:31:00.981Z,21.90
2018-09-25T00:33:34.850Z,21.90
2018-09-25T00:36:08.670Z,21.90
2018-09-25T00:38:42.392Z,21.90
2018-09-25T00:41:16.233Z,21.90
2018-09-25T00:43:49.847Z,21.90
2018-09-25T00:46:23.661Z,21.90
2018-09-25T00:48:57.542Z,21.90
2018-09-25T00:51:31.420Z,21.90
2018-09-25T00:54:05.306Z,21.90
2018-09-25T00:56:39.133Z,21.90
2018-09-25T00:59:13.028Z,21.90
2018-09-25T01:01:46.697Z,21.80
2018-09-25T01:04:20.410Z,21.90
2018-09-25T01:06:53.990Z,21.80
2018-09-25T01:09:27.585Z,21.90
2018-09-25T01:12:01.272Z,21.80
2018-09-25T01:14:35.184Z,21.90
2018-09-25T01:17:09.036Z,21.80
2018-09-25T01:19:42.776Z,21.80
2018-09-25T01:22:16.648Z,21.80
2018-09-25T01:24:50.276Z,21.80
2018-09-25T01:27:23.955Z,21.80
2018-09-25T01:29:57.685Z,21.80
2018-09-25T01:32:31.384Z,21.80
2018-09-25T01:35:05.226Z,21.80
2018-09-25T01:37:38.877Z,21.80
2018-09-25T01:40:12.700Z,21.80
2018-09-25T01:42:46.544Z,21.80
2018-09-25T01:45:20.236Z,21.80
2018-09-25T01:47:54.097Z,21.80
2018-09-25T01:50:27.823Z,21.80
2018-09-25T01:53:01.540Z,21.80
2018-09-25T01:55:35.254Z,21.80
2018-09-25T01:58:09.967Z,21.80
2018-09-25T02:00:43.808Z,21.70
2018-09-25T02:03:17.508Z,21.70
2018-09-25T02:05:51.296Z,21.70
2018-09-25T02:08:25.033Z,21.80
2018-09-25T02:10:58.796Z,21.70
2018-09-25T02:13:32.577Z,21.70
2018-09-25T02:16:06.600Z,21.80
2018-09-25T02:18:40.458Z,21.80
2018-09-25T02:21:14.285Z,21.70
2018-09-25T02:23:48.113Z,21.80
2018-09-25T02:26:21.793Z,21.70
2018-09-25T02:28:55.611Z,21.70
2018-09-25T02:31:29.231Z,21.70
2018-09-25T02:34:02.952Z,21.70
2018-09-25T02:36:36.779Z,21.70
2018-09-25T02:39:14.032Z,21.70
2018-09-25T02:41:48.229Z,21.70
2018-09-25T02:44:22.157Z,21.70
2018-09-25T02:46:55.922Z,21.70
2018-09-25T02:49:29.772Z,21.70
2018-09-25T02:52:03.513Z,21.70
2018-09-25T02:54:37.314Z,21.70
2018-09-25T02:57:11.039Z,21.70
2018-09-25T02:59:44.798Z,21.70
2018-09-25T03:02:18.674Z,21.70
2018-09-25T03:04:52.493Z,21.70
2018-09-25T03:07:26.379Z,21.70
2018-09-25T03:10:00.189Z,21.70
2018-09-25T03:12:33.946Z,21.70
2018-09-25T03:15:07.779Z,21.70
2018-09-25T03:17:41.881Z,21.70
2018-09-25T03:20:15.477Z,21.60
2018-09-25T03:22:49.234Z,21.60
2018-09-25T03:25:23.014Z,21.70
2018-09-25T03:27:56.749Z,21.60
2018-09-25T03:30:30.564Z,21.60
2018-09-25T03:33:04.400Z,21.60
2018-09-25T03:35:38.268Z,21.60
2018-09-25T03:38:11.983Z,21.60
2018-09-25T03:40:45.694Z,21.60
2018-09-25T03:43:19.603Z,21.60
2018-09-25T03:45:53.228Z,21.60
2018-09-25T03:48:27.129Z,21.60
2018-09-25T03:51:00.826Z,21.60
2018-09-25T03:53:34.523Z,21.60
2018-09-25T03:56:08.220Z,21.60
2018-09-25T03:58:42.077Z,21.60
2018-09-25T04:01:15.789Z,21.60
2018-09-25T04:03:49.453Z,21.60
2018-09-25T04:06:23.173Z,21.60
2018-09-25T04:08:57.017Z,21.60
2018-09-25T04:11:30.695Z,21.60
2018-09-25T04:14:04.369Z,21.60
2018-09-25T04:16:38.125Z,21.60
2018-09-25T04:19:11.801Z,21.60
2018-09-25T04:21:45.506Z,21.60
2018-09-25T04:24:19.271Z,21.60
2018-09-25T04:26:53.107Z,21.60
2018-09-25T04:29:26.841Z,21.60
2018-09-25T04:32:00.493Z,21.60
2018-09-25T04:34:34.231Z,21.60
2018-09-25T04:37:07.860Z,21.60
2018-09-25T04:39:41.525Z,21.60
2018-09-25T04:42:16.358Z,21.60
2018-09-25T04:44:50.238Z,21.60
2018-09-25T04:47:24.109Z,21.70
2018-09-25T04:49:57.925Z,21.70
2018-09-25T04:52:31.732Z,21.60
2018-09-25T04:55:05.439Z,21.70
2018-09-25T04:57:39.244Z,21.70
2018-09-25T05:00:13.081Z,21.70
2018-09-25T05:02:46.784Z,21.70
2018-09-25T05:05:20.385Z,21.70
2018-09-25T05:07:54.089Z,21.70
2018-09-25T05:10:27.762Z,21.70
2018-09-25T05:13:01.376Z,21.70
2018-09-25T05:15:35.061Z,21.70
2018-09-25T05:18:08.917Z,21.70
2018-09-25T05:20:43.005Z,21.70
2018-09-25T05:23:16.778Z,21.70
2018-09-25T05:25:50.477Z,21.70
2018-09-25T05:28:24.294Z,21.70
2018-09-25T05:30:57.909Z,21.70
2018-09-25T05:33:31.675Z,21.70
2018-09-25T05:36:05.436Z,21.80
2018-09-25T05:38:39.113Z,21.80
2018-09-25T05:41:12.827Z,21.80
2018-09-25T05:43:46.642Z,21.80
2018-09-25T05:46:20.589Z,21.80
2018-09-25T05:48:54.542Z,21.80
2018-09-25T05:51:28.160Z,21.80
2018-09-25T05:54:03.101Z,21.80
2018-09-25T05:56:37.009Z,21.90
2018-09-25T05:59:10.645Z,21.80
2018-09-25T06:01:44.484Z,21.80
2018-09-25T06:04:18.332Z,21.90
2018-09-25T06:06:52.066Z,21.90
2018-09-25T06:09:25.637Z,21.90
2018-09-25T06:11:59.573Z,21.90
2018-09-25T06:14:33.344Z,21.90
2018-09-25T06:17:06.980Z,21.90
2018-09-25T06:19:40.851Z,21.90
2018-09-25T06:22:14.772Z,21.90
2018-09-25T06:24:48.476Z,21.90
2018-09-25T06:27:22.148Z,21.90
2018-09-25T06:29:55.813Z,21.80
2018-09-25T06:32:29.668Z,21.90
2018-09-25T06:35:03.595Z,21.80
2018-09-25T06:37:37.215Z,21.80
2018-09-25T06:40:11.033Z,21.80
2018-09-25T06:42:44.899Z,21.80
2018-09-25T06:45:18.783Z,21.70
2018-09-25T06:47:52.479Z,21.70
2018-09-25T06:50:26.303Z,21.70
2018-09-25T06:53:00.208Z,21.70
2018-09-25T06:55:34.053Z,21.70
2018-09-25T06:58:07.805Z,21.70
2018-09-25T07:00:41.687Z,21.70
2018-09-25T07:03:15.375Z,21.70
2018-09-25T07:05:49.057Z,21.70
2018-09-25T07:08:22.714Z,21.70
2018-09-25T07:10:56.342Z,21.70
2018-09-25T07:13:30.179Z,21.70
2018-09-25T07:16:03.891Z,21.70
2018-09-25T07:18:37.712Z,21.60
2018-09-25T07:21:12.234Z,21.60
2018-09-25T07:23:46.210Z,21.60
2018-09-25T07:26:20.056Z,21.70
2018-09-25T07:28:53.747Z,21.60
2018-09-25T07:31:27.472Z,21.60
2018-09-25T07:34:01.322Z,21.60
2018-09-25T07:36:34.957Z,21.60
2018-09-25T07:39:08.866Z,21.60
2018-09-25T07:41:42.502Z,21.60
2018-09-25T07:44:16.365Z,21.60
2018-09-25T07:46:50.228Z,21.60
2018-09-25T07:49:24.016Z,21.60
2018-09-25T07:51:57.638Z,21.60
2018-09-25T07:54:31.320Z,21.60
2018-09-25T07:57:04.996Z,21.50
2018-09-25T07:59:38.662Z,21.60
2018-09-25T08:02:12.306Z,21.60
2018-09-25T08:04:46.160Z,21.60
2018-09-25T08:07:19.848Z,21.50
2018-09-25T08:09:53.552Z,21.60
2018-09-25T08:12:27.452Z,21.60
2018-09-25T08:15:01.177Z,21.50
2018-09-25T08:17:34.995Z,21.50
2018-09-25T08:20:08.734Z,21.50
2018-09-25T08:22:42.606Z,21.50
2018-09-25T08:25:16.280Z,21.50
2018-09-25T08:27:49.884Z,21.50
2018-09-25T08:30:23.829Z,21.50
2018-09-25T08:32:57.662Z,21.50
2018-09-25T08:35:31.552Z,21.50
2018-09-25T08:38:05.284Z,21.50
2018-09-25T08:40:39.212Z,21.50
2018-09-25T08:43:13.085Z,21.60
2018-09-25T08:45:47.021Z,21.50
2018-09-25T08:48:20.750Z,21.60
2018-09-25T08:50:54.430Z,21.60
2018-09-25T08:53:28.304Z,21.60
2018-09-25T08:56:01.981Z,21.60
2018-09-25T08:58:35.704Z,21.60
2018-09-25T09:01:09.620Z,21.60
2018-09-25T09:03:43.300Z,21.60
2018-09-25T09:06:17.006Z,21.60
2018-09-25T09:08:50.690Z,21.60
2018-09-25T09:11:24.457Z,21.60
2018-09-25T09:13:58.196Z,21.60
2018-09-25T09:16:32.028Z,21.60
2018-09-25T09:19:05.721Z,21.60
2018-09-25T09:21:39.608Z,21.60
2018-09-25T09:24:13.436Z,21.60
2018-09-25T09:26:47.478Z,21.70
2018-09-25T09:29:21.191Z,21.60
2018-09-25T09:31:54.904Z,21.70
2018-09-25T09:34:28.572Z,21.70
2018-09-25T09:37:02.261Z,21.70
2018-09-25T09:39:36.114Z,21.70
2018-09-25T09:42:09.793Z,21.70
2018-09-25T09:44:43.449Z,21.70
2018-09-25T09:47:17.450Z,21.70
2018-09-25T09:49:51.107Z,21.70
2018-09-25T09:52:24.823Z,21.80
2018-09-25T09:54:58.516Z,21.80
2018-09-25T09:57:32.265Z,21.80
2018-09-25T10:00:05.905Z,21.80
2018-09-25T10:02:39.634Z,21.80
2018-09-25T10:05:13.531Z,21.80
2018-09-25T10:07:47.276Z,21.80
2018-09-25T10:10:20.986Z,21.80
2018-09-25T10:12:54.841Z,21.80
2018-09-25T10:15:28.697Z,21.90
2018-09-25T10:18:02.379Z,21.90
2018-09-25T10:20:36.132Z,21.90
2018-09-25T10:23:09.967Z,21.90
2018-09-25T10:25:43.672Z,21.90
2018-09-25T10:28:17.522Z,21.90
2018-09-25T10:30:51.224Z,21.90
2018-09-25T10:33:24.892Z,22.00
2018-09-25T10:35:58.790Z,22.00
2018-09-25T10:38:32.640Z,22.00
2018-09-25T10:41:06.537Z,22.00
2018-09-25T10:43:40.269Z,22.00
2018-09-25T10:46:13.968Z,22.00
2018-09-25T10:48:47.870Z,22.00
2018-09-25T10:51:21.657Z,22.00
2018-09-25T10:53:55.471Z,22.10
2018-09-25T10:56:29.242Z,22.10
2018-09-25T10:59:03.049Z,22.10
2018-09-25T11:01:36.722Z,22.10
2018-09-25T11:04:10.413Z,22.10
2018-09-25T11:06:44.124Z,22.20
2018-09-25T11:09:17.824Z,22.20
2018-09-25T11:11:51.673Z,22.20
2018-09-25T11:14:25.597Z,22.20
2018-09-25T11:16:59.276Z,22.20
2018-09-25T11:19:33.005Z,22.30
2018-09-25T11:22:06.784Z,22.30
2018-09-25T11:24:40.496Z,22.30
2018-09-25T11:27:14.170Z,22.30
2018-09-25T11:29:48.046Z,22.30
2018-09-25T11:32:21.805Z,22.30
2018-09-25T11:34:55.675Z,22.40
2018-09-25T11:37:29.679Z,22.40
2018-09-25T11:40:03.482Z,22.40
2018-09-25T11:42:37.131Z,22.40
2018-09-25T11:45:11.006Z,22.40
2018-09-25T11:47:44.974Z,22.50
2018-09-25T11:50:18.671Z,22.40
2018-09-25T11:52:52.686Z,22.50
2018-09-25T11:55:26.351Z,22.50
2018-09-25T11:58:00.161Z,22.50
2018-09-25T12:00:33.792Z,22.60
2018-09-25T12:03:07.567Z,22.60
2018-09-25T12:05:41.569Z,22.60
2018-09-25T12:08:15.306Z,22.60
2018-09-25T12:10:49.146Z,22.60
2018-09-25T12:13:22.960Z,22.70
2018-09-25T12:15:56.636Z,22.70
2018-09-25T12:18:30.564Z,22.70
2018-09-25T12:21:04.255Z,22.70
2018-09-25T12:23:38.126Z,22.70
2018-09-25T12:26:12.097Z,22.80
2018-09-25T12:28:45.723Z,22.80
2018-09-25T12:31:19.671Z,22.80
2018-09-25T12:33:53.415Z,22.80
2018-09-25T12:36:27.092Z,22.80
2018-09-25T12:39:00.750Z,22.80
2018-09-25T12:41:34.460Z,22.90
2018-09-25T12:44:08.312Z,22.90
2018-09-25T12:46:42.183Z,22.90
2018-09-25T12:49:16.021Z,22.90
2018-09-25T12:51:49.708Z,22.90
2018-09-25T12:54:23.562Z,23.00
2018-09-25T12:56:57.417Z,23.00
2018-09-25T12:59:31.235Z,23.00
2018-09-25T13:02:05.097Z,23.00
2018-09-25T13:04:38.848Z,23.00
2018-09-25T13:07:12.472Z,23.10
2018-09-25T13:09:46.345Z,23.10
2018-09-25T13:12:20.033Z,23.10
2018-09-25T13:14:53.736Z,23.10
2018-09-25T13:17:27.658Z,23.10
2018-09-25T13:20:01.362Z,23.10
2018-09-25T13:22:35.209Z,23.20
2018-09-25T13:25:08.932Z,23.20
2018-09-25T13:27:42.720Z,23.20
2018-09-25T13:30:16.565Z,23.20
2018-09-25T13:32:50.552Z,23.30
2018-09-25T13:35:24.277Z,23.30
2018-09-25T13:37:58.064Z,23.30
2018-09-25T13:40:31.939Z,23.30
2018-09-25T13:43:05.659Z,23.30
2018-09-25T13:45:39.445Z,23.30
2018-09-25T13:48:13.134Z,23.30
2018-09-25T13:50:46.791Z,23.40
2018-09-25T13:53:20.432Z,23.40
2018-09-25T13:55:54.261Z,23.40
2018-09-25T13:58:28.105Z,23.40
2018-09-25T14:01:01.990Z,23.40
2018-09-25T14:03:35.817Z,23.40
2018-09-25T14:06:09.440Z,23.40
2018-09-25T14:08:43.141Z,23.50
2018-09-25T14:11:16.991Z,23.50
2018-09-25T14:13:50.565Z,23.50
2018-09-25T14:16:24.252Z,23.50
2018-09-25T14:18:57.985Z,23.50
2018-09-25T14:21:31.660Z,23.50
2018-09-25T14:24:05.544Z,23.50
2018-09-25T14:26:39.348Z,23.50
2018-09-25T14:29:13.232Z,23.50
2018-09-25T14:31:47.043Z,23.50
2018-09-25T14:34:20.919Z,23.50
2018-09-25T14:36:54.576Z,23.50
2018-09-25T14:39:28.289Z,23.50
2018-09-25T14:42:01.922Z,23.50
2018-09-25T14:44:35.623Z,23.50
2018-09-25T14:47:09.417Z,23.60
2018-09-25T14:49:43.228Z,23.70
2018-09-25T14:52:16.950Z,23.70
2018-09-25T14:54:51.097Z,23.70
2018-09-25T14:57:24.729Z,23.70
2018-09-25T14:59:58.480Z,23.80
2018-09-25T15:02:32.360Z,23.80
2018-09-25T15:05:06.028Z,23.70
2018-09-25T15:07:39.630Z,23.80
2018-09-25T15:10:13.472Z,23.70
2018-09-25T15:12:47.963Z,23.80
2018-09-25T15:15:21.718Z,23.80
2018-09-25T15:17:55.474Z,23.80
2018-09-25T15:20:29.117Z,23.80
2018-09-25T15:23:09.738Z,23.80
2018-09-25T15:25:43.376Z,23.80
2018-09-25T15:28:17.014Z,23.80
2018-09-25T15:30:50.838Z,23.80
2018-09-25T15:33:24.599Z,23.90
2018-09-25T15:35:58.389Z,23.90
2018-09-25T15:38:32.207Z,23.90
2018-09-25T15:41:05.964Z,23.90
2018-09-25T15:43:39.648Z,23.90
2018-09-25T15:46:13.326Z,23.80
2018-09-25T15:48:47.212Z,23.90
2018-09-25T15:51:21.196Z,23.90
2018-09-25T15:53:54.800Z,23.90
2018-09-25T15:56:28.482Z,23.90
2018-09-25T15:59:02.262Z,24.00
2018-09-25T16:01:36.137Z,24.00
2018-09-25T16:04:09.728Z,24.00
2018-09-25T16:06:43.435Z,24.00
2018-09-25T16:09:17.188Z,24.00
2018-09-25T16:11:50.905Z,24.00
2018-09-25T16:14:24.644Z,24.10
2018-09-25T16:16:58.547Z,24.10
2018-09-25T16:19:32.523Z,24.10
2018-09-25T16:22:06.233Z,24.00
2018-09-25T16:24:39.901Z,24.00
2018-09-25T16:27:13.526Z,23.90
2018-09-25T16:29:47.357Z,23.90
2018-09-25T16:32:21.036Z,23.80
2018-09-25T16:34:54.911Z,23.80
2018-09-25T16:37:28.799Z,23.80
2018-09-25T16:40:02.736Z,23.70
2018-09-25T16:42:36.949Z,23.70
2018-09-25T16:45:11.042Z,23.70
2018-09-25T16:47:44.728Z,23.70
2018-09-25T16:50:18.604Z,23.70
2018-09-25T16:52:52.464Z,23.70
2018-09-25T16:55:26.255Z,23.70
2018-09-25T16:58:00.081Z,23.70
2018-09-25T17:00:33.961Z,23.70
2018-09-25T17:03:08.022Z,23.60
2018-09-25T17:05:41.695Z,23.60
2018-09-25T17:08:15.555Z,23.60
2018-09-25T17:10:49.218Z,23.60
2018-09-25T17:13:22.971Z,23.60
2018-09-25T17:15:56.814Z,23.50
2018-09-25T17:18:30.668Z,23.50
2018-09-25T17:21:04.475Z,23.50
2018-09-25T17:23:38.574Z,23.50
2018-09-25T17:26:12.285Z,23.50
2018-09-25T17:28:46.160Z,23.50
2018-09-25T17:31:19.875Z,23.40
2018-09-25T17:33:53.723Z,23.40
2018-09-25T17:36:27.432Z,23.40
2018-09-25T17:39:01.419Z,23.40
2018-09-25T17:41:35.596Z,23.40
2018-09-25T17:44:09.333Z,23.30
2018-09-25T17:46:44.180Z,23.30
2018-09-25T17:49:18.086Z,23.30
2018-09-25T17:51:51.939Z,23.30
2018-09-25T17:54:25.639Z,23.30
2018-09-25T17:56:59.484Z,23.30
2018-09-25T17:59:33.252Z,23.20
2018-09-25T18:02:07.934Z,23.20
2018-09-25T18:04:41.722Z,23.20
2018-09-25T18:07:15.444Z,23.20
2018-09-25T18:09:49.357Z,23.20
2018-09-25T18:12:24.052Z,23.10
2018-09-25T18:14:57.720Z,23.10
2018-09-25T18:17:31.628Z,23.10
2018-09-25T18:20:05.355Z,23.10
2018-09-25T18:22:38.987Z,23.10
2018-09-25T18:25:12.589Z,23.10
2018-09-25T18:27:46.316Z,23.10
2018-09-25T18:30:20.244Z,23.10
2018-09-25T18:32:53.941Z,23.10
2018-09-25T18:35:27.634Z,23.10
2018-09-25T18:38:01.569Z,23.10
2018-09-25T18:40:35.786Z,23.10
2018-09-25T18:43:09.556Z,23.10
2018-09-25T18:45:43.437Z,23.10
2018-09-25T18:48:17.092Z,23.10
2018-09-25T18:50:50.961Z,23.10
2018-09-25T18:53:24.836Z,23.10
2018-09-25T18:55:58.526Z,23.10
2018-09-25T18:58:32.226Z,23.10
2018-09-25T19:01:06.116Z,23.10
2018-09-25T19:03:40.077Z,23.10
2018-09-25T19:06:13.753Z,23.10
2018-09-25T19:08:47.607Z,23.10
2018-09-25T19:11:21.480Z,23.00
2018-09-25T19:13:55.136Z,23.00
2018-09-25T19:16:29.035Z,23.00
2018-09-25T19:19:02.779Z,23.00
2018-09-25T19:21:36.653Z,23.10
2018-09-25T19:24:10.332Z,23.00
2018-09-25T19:26:44.186Z,23.00
2018-09-25T19:29:17.864Z,23.00
2018-09-25T19:31:51.746Z,23.00
2018-09-25T19:34:25.425Z,23.00
2018-09-25T19:36:59.338Z,23.00
2018-09-25T19:39:33.198Z,23.00
2018-09-25T19:42:07.158Z,23.00
2018-09-25T19:44:40.771Z,23.00
2018-09-25T19:47:14.708Z,23.00
2018-09-25T19:49:48.554Z,23.00
2018-09-25T19:52:22.560Z,23.00
2018-09-25T19:54:56.475Z,23.00
2018-09-25T19:57:30.259Z,23.00
2018-09-25T20:00:03.983Z,23.00
2018-09-25T20:02:38.659Z,23.00
2018-09-25T20:05:12.337Z,23.00
2018-09-25T20:07:45.928Z,22.90
2018-09-25T20:10:19.575Z,22.90
2018-09-25T20:12:53.811Z,22.90
2018-09-25T20:15:27.435Z,22.90
2018-09-25T20:18:01.218Z,22.90
2018-09-25T20:20:35.919Z,22.90
2018-09-25T20:23:09.754Z,22.90
2018-09-25T20:25:43.559Z,22.90
2018-09-25T20:28:17.294Z,22.80
2018-09-25T20:30:50.999Z,22.80
2018-09-25T20:33:24.628Z,22.80
2018-09-25T20:35:58.230Z,22.80
2018-09-25T20:38:31.922Z,22.80
2018-09-25T20:41:05.816Z,22.70
2018-09-25T20:43:39.754Z,22.70
2018-09-25T20:46:13.425Z,22.70
2018-09-25T20:48:47.266Z,22.70
2018-09-25T20:51:21.087Z,22.70
2018-09-25T20:53:54.876Z,22.70
2018-09-25T20:56:28.531Z,22.70
2018-09-25T20:59:02.379Z,22.70
2018-09-25T21:01:36.146Z,22.70
2018-09-25T21:04:09.855Z,22.70
2018-09-25T21:06:43.508Z,22.70
2018-09-25T21:09:17.240Z,22.60
2018-09-25T21:11:50.942Z,22.60
2018-09-25T21:14:24.872Z,22.60
2018-09-25T21:16:58.537Z,22.60
2018-09-25T21:19:32.358Z,22.60
2018-09-25T21:22:06.218Z,22.60
2018-09-25T21:24:39.954Z,22.60
2018-09-25T21:27:13.885Z,22.60
2018-09-25T21:29:47.633Z,22.60
2018-09-25T21:32:21.238Z,22.50
2018-09-25T21:34:54.896Z,22.50
2018-09-25T21:37:28.746Z,22.50
2018-09-25T21:40:02.662Z,22.50
2018-09-25T21:42:36.376Z,22.50
2018-09-25T21:45:10.305Z,22.50
2018-09-25T21:47:44.167Z,22.50
2018-09-25T21:50:17.872Z,22.50
2018-09-25T21:52:51.757Z,22.40
2018-09-25T21:55:25.486Z,22.50
2018-09-25T21:57:59.791Z,22.50
2018-09-25T22:00:33.651Z,22.40
2018-09-25T22:03:07.387Z,22.40
2018-09-25T22:05:41.058Z,22.40
2018-09-25T22:08:14.765Z,22.40
2018-09-25T22:10:48.659Z,22.40
2018-09-25T22:13:22.520Z,22.40
2018-09-25T22:15:56.448Z,22.40
2018-09-25T22:18:30.299Z,22.40
2018-09-25T22:21:04.014Z,22.40
2018-09-25T22:23:37.726Z,22.40
2018-09-25T22:26:11.673Z,22.30
2018-09-25T22:28:45.552Z,22.30
2018-09-25T22:31:19.228Z,22.30
2018-09-25T22:33:52.999Z,22.30
2018-09-25T22:36:26.653Z,22.30
2018-09-25T22:39:00.571Z,22.30
2018-09-25T22:41:34.325Z,22.30
2018-09-25T22:44:08.134Z,22.30
2018-09-25T22:46:41.894Z,22.30
2018-09-25T22:49:15.569Z,22.30
2018-09-25T22:51:49.303Z,22.30
2018-09-25T22:54:23.216Z,22.30
2018-09-25T22:56:56.953Z,22.30
2018-09-25T22:59:30.657Z,22.20
2018-09-25T23:02:04.483Z,22.20
2018-09-25T23:04:38.368Z,22.20
2018-09-25T23:07:12.084Z,22.20
2018-09-25T23:09:45.942Z,22.20
2018-09-25T23:12:19.615Z,22.20
2018-09-25T23:14:53.269Z,22.20
2018-09-25T23:17:26.967Z,22.20
2018-09-25T23:20:00.763Z,22.20
2018-09-25T23:22:34.522Z,22.20
2018-09-25T23:25:08.327Z,22.20
2018-09-25T23:27:41.968Z,22.20
2018-09-25T23:30:15.798Z,22.20
2018-09-25T23:32:49.481Z,22.20
2018-09-25T23:35:23.283Z,22.20
2018-09-25T23:37:56.947Z,22.20
2018-09-25T23:40:31.456Z,22.20
2018-09-25T23:43:05.303Z,22.20
2018-09-25T23:45:41.702Z,22.20
2018-09-25T23:48:48.175Z,22.10
2018-09-25T23:51:25.779Z,22.10
2018-09-25T23:54:00.529Z,22.10
2018-09-25T23:56:36.538Z,22.10
2018-09-25T23:59:13.645Z,22.10
